Time;durP1;ratioP1;P1;durP2;ratioP2;P2;SDS_P1;SDS_P2;PMS_P1;PMS_P2;Temp;Humidity;BMP_temperature;BMP_pressure;BME280_temperature;BME280_humidity;BME280_pressure;Samples;Min_cycle;Max_cycle;Signal;HPM_P1;HPM_P2
2022/05/20 00:01:00;;;;;;;0.00;0.00;;;17.80;1.00;226.50;231333.00;;;;5070909;28;20218;-69
2022/05/20 00:03:31;;;;;;;0.10;0.10;;;17.80;1.00;226.50;231333.00;;;;5063724;28;20201;-69
2022/05/20 00:06:00;;;;;;;0.00;0.00;;;17.70;1.00;226.50;231333.00;;;;5069933;28;20181;-68
2022/05/20 00:08:29;;;;;;;0.00;0.00;;;17.70;1.00;226.50;231333.00;;;;5070284;28;20228;-68
2022/05/20 00:10:58;;;;;;;0.00;0.00;;;17.70;1.00;226.50;231333.00;;;;5071464;28;20217;-69
2022/05/20 00:13:29;;;;;;;0.00;0.00;;;17.80;1.00;226.50;231333.00;;;;5070529;28;20201;-68
2022/05/20 00:15:59;;;;;;;0.00;0.00;;;17.80;1.00;226.50;231333.00;;;;5069812;28;20200;-69
2022/05/20 00:18:28;;;;;;;0.00;0.00;;;17.80;1.00;226.50;231333.00;;;;5070354;28;20236;-69
2022/05/20 00:20:59;;;;;;;0.00;0.00;;;17.70;1.00;226.50;231333.00;;;;5070353;28;20217;-69
2022/05/20 00:23:27;;;;;;;0.00;0.00;;;17.70;1.00;226.50;231333.00;;;;5057026;28;20198;-69
2022/05/20 00:25:56;;;;;;;0.10;0.10;;;17.70;1.00;226.50;231333.00;;;;5065000;28;20201;-68
2022/05/20 00:28:29;;;;;;;0.00;0.00;;;17.70;1.00;226.50;231333.00;;;;5070587;28;20575;-68
2022/05/20 00:31:02;;;;;;;0.00;0.00;;;17.70;1.00;226.50;231333.00;;;;5065999;28;20404;-69
2022/05/20 00:33:31;;;;;;;0.00;0.00;;;17.70;1.00;226.50;231333.00;;;;5063294;28;20190;-69
2022/05/20 00:36:01;;;;;;;0.05;0.05;;;17.70;1.00;226.50;231333.00;;;;5068428;28;20194;-68
2022/05/20 00:38:29;;;;;;;0.00;0.00;;;17.70;1.00;226.50;231333.00;;;;5070816;28;20259;-68
2022/05/20 00:40:59;;;;;;;0.00;0.00;;;17.80;1.00;226.50;231333.00;;;;5064867;28;20233;-69
2022/05/20 00:43:40;;;;;;;0.00;0.00;;;17.80;1.00;226.50;231333.00;;;;5062389;28;20209;-68
2022/05/20 00:46:12;;;;;;;0.10;0.10;;;17.90;1.00;226.50;231333.00;;;;5062512;28;20241;-69
2022/05/20 00:48:41;;;;;;;0.00;0.00;;;17.90;1.00;226.50;231333.00;;;;5067952;28;20198;-69
2022/05/20 00:51:14;;;;;;;0.00;0.00;;;17.80;1.00;226.50;231333.00;;;;5070062;28;20205;-69
2022/05/20 00:53:51;;;;;;;0.00;0.00;;;17.80;1.00;226.50;231333.00;;;;5067897;28;20671;-69
2022/05/20 00:56:31;;;;;;;0.00;0.00;;;17.70;1.00;226.50;231333.00;;;;5065971;28;20190;-69
2022/05/20 00:59:02;;;;;;;0.00;0.00;;;17.80;1.00;226.50;231333.00;;;;5065157;28;20221;-69
2022/05/20 01:01:30;;;;;;;0.00;0.00;;;17.70;1.00;226.50;231333.00;;;;5065616;28;20284;-69
2022/05/20 01:03:59;;;;;;;0.00;0.00;;;17.70;1.00;226.50;231333.00;;;;5070533;28;20305;-68
2022/05/20 01:06:28;;;;;;;0.00;0.00;;;17.70;1.00;226.50;231333.00;;;;5065616;28;20202;-69
2022/05/20 01:08:57;;;;;;;0.00;0.00;;;17.70;1.00;226.50;231333.00;;;;5074212;28;20206;-69
2022/05/20 01:11:26;;;;;;;0.00;0.00;;;17.70;1.00;226.50;231333.00;;;;5063083;28;20610;-69
2022/05/20 01:13:55;;;;;;;0.00;0.00;;;17.60;1.00;226.50;231333.00;;;;5074057;28;20197;-69
2022/05/20 01:16:25;;;;;;;0.00;0.00;;;17.60;1.00;226.50;231333.00;;;;5073556;28;20532;-69
2022/05/20 01:18:56;;;;;;;0.00;0.00;;;17.60;1.00;226.50;231333.00;;;;5074101;28;20670;-69
2022/05/20 01:21:25;;;;;;;0.00;0.00;;;17.60;1.00;226.50;231333.00;;;;5073498;28;20536;-69
2022/05/20 01:24:01;;;;;;;0.00;0.00;;;17.60;1.00;226.50;231333.00;;;;5073348;28;20206;-68
2022/05/20 01:26:29;;;;;;;0.00;0.00;;;17.60;1.00;226.50;231333.00;;;;5059099;28;20835;-69
2022/05/20 01:28:58;;;;;;;0.00;0.00;;;17.60;1.00;226.50;231333.00;;;;5073679;28;20659;-69
2022/05/20 01:31:26;;;;;;;0.00;0.00;;;17.60;1.00;226.50;231333.00;;;;5073257;28;20280;-69
2022/05/20 01:33:54;;;;;;;0.10;0.10;;;17.60;1.00;226.50;231333.00;;;;5073661;28;20542;-69
2022/05/20 01:36:26;;;;;;;0.00;0.00;;;17.60;1.00;226.50;231333.00;;;;5072824;28;20189;-69
2022/05/20 01:38:59;;;;;;;0.08;0.08;;;17.70;1.00;226.50;231333.00;;;;5070007;28;20200;-68
2022/05/20 01:41:35;;;;;;;0.00;0.00;;;17.70;1.00;226.50;231333.00;;;;5072096;28;20258;-69
2022/05/20 01:44:12;;;;;;;0.00;0.00;;;17.70;1.00;226.50;231333.00;;;;5072333;28;20670;-69
2022/05/20 01:46:46;;;;;;;0.10;0.10;;;17.80;1.00;226.50;231333.00;;;;5072640;28;20602;-68
2022/05/20 01:49:32;;;;;;;0.00;0.00;;;17.80;1.00;226.50;231333.00;;;;5072522;28;20236;-69
2022/05/20 01:52:11;;;;;;;0.00;0.00;;;17.80;1.00;226.50;231333.00;;;;5066735;28;20198;-69
2022/05/20 01:54:55;;;;;;;0.00;0.00;;;17.80;1.00;226.50;231333.00;;;;5065534;28;20384;-69
2022/05/20 01:57:30;;;;;;;0.10;0.10;;;17.80;1.00;226.50;231333.00;;;;5066418;28;20193;-69
2022/05/20 02:00:08;;;;;;;0.00;0.00;;;17.80;1.00;226.50;231333.00;;;;5072080;28;20225;-69
2022/05/20 02:02:46;;;;;;;0.00;0.00;;;17.80;1.00;226.50;231333.00;;;;5056957;28;20232;-69
2022/05/20 02:05:32;;;;;;;0.00;0.00;;;17.70;1.00;226.50;231333.00;;;;5072010;28;20192;-69
2022/05/20 02:08:07;;;;;;;0.00;0.00;;;17.80;1.00;226.50;231333.00;;;;5060343;28;20311;-69
2022/05/20 02:10:44;;;;;;;0.00;0.00;;;17.70;1.00;226.50;231333.00;;;;5072319;28;20275;-69
2022/05/20 02:13:17;;;;;;;0.00;0.00;;;17.70;1.00;226.50;231333.00;;;;5072910;28;20198;-69
2022/05/20 02:15:53;;;;;;;0.00;0.00;;;17.70;1.00;226.50;231333.00;;;;5072359;28;20251;-69
2022/05/20 02:18:28;;;;;;;0.00;0.00;;;17.70;1.00;226.50;231333.00;;;;5072487;28;20200;-69
2022/05/20 02:21:05;;;;;;;0.00;0.00;;;17.70;1.00;226.50;231333.00;;;;5072689;28;20221;-69
2022/05/20 02:23:40;;;;;;;0.00;0.00;;;17.60;1.00;226.50;231333.00;;;;5069869;28;20211;-69
2022/05/20 02:26:15;;;;;;;0.00;0.00;;;17.60;1.00;226.50;231333.00;;;;5062798;28;20251;-69
2022/05/20 02:28:51;;;;;;;0.00;0.00;;;17.60;1.00;226.50;231333.00;;;;5070002;28;20197;-69
2022/05/20 02:31:29;;;;;;;0.00;0.00;;;17.70;1.00;226.50;231333.00;;;;5062089;28;20232;-69
2022/05/20 02:33:58;;;;;;;0.00;0.00;;;17.70;1.00;226.50;231333.00;;;;5065482;28;20632;-69
2022/05/20 02:36:32;;;;;;;0.00;0.00;;;17.70;1.00;226.50;231333.00;;;;5067554;28;20657;-69
2022/05/20 02:39:02;;;;;;;0.00;0.00;;;17.60;1.00;226.50;231333.00;;;;5071913;28;20623;-69
2022/05/20 02:41:32;;;;;;;0.00;0.00;;;17.60;1.00;226.50;231333.00;;;;5072036;28;20197;-68
2022/05/20 02:44:01;;;;;;;0.00;0.00;;;17.70;1.00;226.50;231333.00;;;;5072272;28;20832;-69
2022/05/20 02:46:29;;;;;;;0.00;0.00;;;17.70;1.00;226.50;231333.00;;;;5063035;28;20209;-69
2022/05/20 02:48:57;;;;;;;0.00;0.00;;;17.60;1.00;226.50;231333.00;;;;5071678;28;20208;-69
2022/05/20 02:51:25;;;;;;;0.00;0.00;;;17.70;1.00;226.50;231333.00;;;;5059819;28;20214;-69
2022/05/20 02:53:54;;;;;;;0.00;0.00;;;17.40;1.00;226.50;231333.00;;;;5066188;28;20231;-70
2022/05/20 02:56:22;;;;;;;0.00;0.00;;;17.40;1.00;226.50;231333.00;;;;5067561;28;20191;-70
2022/05/20 03:04:24;;;;;;;0.00;0.00;;;17.30;1.00;226.50;231333.00;;;;5072706;28;20239;-69
2022/05/20 03:06:54;;;;;;;0.00;0.00;;;17.20;1.00;226.50;231333.00;;;;5073596;28;20193;-69
2022/05/20 03:09:26;;;;;;;0.00;0.00;;;17.20;1.00;226.50;231333.00;;;;5074789;28;20271;-69
2022/05/20 03:11:54;;;;;;;0.00;0.00;;;17.10;1.00;226.50;231333.00;;;;5075773;28;20221;-70
2022/05/20 03:14:25;;;;;;;0.00;0.00;;;16.90;1.00;226.50;231333.00;;;;5080955;28;20190;-69
2022/05/20 03:16:53;;;;;;;0.00;0.00;;;16.90;1.00;226.50;231333.00;;;;5078118;28;20220;-69
2022/05/20 03:19:24;;;;;;;0.00;0.00;;;16.90;1.00;226.50;231333.00;;;;5078027;28;20251;-69
2022/05/20 03:21:53;;;;;;;0.00;0.00;;;16.80;1.00;226.50;231333.00;;;;5063179;28;20517;-70
2022/05/20 03:24:21;;;;;;;0.00;0.00;;;16.60;1.00;226.50;231333.00;;;;5072836;28;20671;-69
2022/05/20 03:26:50;;;;;;;0.00;0.00;;;16.40;1.00;226.50;231333.00;;;;5077387;28;20202;-69
2022/05/20 03:29:18;;;;;;;0.00;0.00;;;16.40;1.00;226.50;231333.00;;;;5069100;28;20274;-69
2022/05/20 03:31:49;;;;;;;0.10;0.10;;;16.40;1.00;226.50;231333.00;;;;5068797;28;20221;-70
2022/05/20 03:34:19;;;;;;;0.00;0.00;;;16.20;1.00;226.50;231333.00;;;;5070632;28;20194;-70
2022/05/20 03:36:50;;;;;;;0.00;0.00;;;16.20;1.00;226.50;231333.00;;;;5070948;28;20326;-69
2022/05/20 03:39:22;;;;;;;0.00;0.00;;;16.20;1.00;226.50;231333.00;;;;5070227;28;20710;-71
2022/05/20 03:41:50;;;;;;;0.00;0.00;;;16.20;1.00;226.50;231333.00;;;;5066602;28;20198;-69
2022/05/20 03:44:20;;;;;;;0.10;0.10;;;16.20;1.00;226.50;231333.00;;;;5071232;28;20189;-68
2022/05/20 03:46:53;;;;;;;0.00;0.00;;;16.20;1.00;226.50;231333.00;;;;5070914;28;20542;-68
2022/05/20 03:49:25;;;;;;;0.00;0.00;;;16.30;1.00;226.50;231333.00;;;;5070231;28;20263;-69
2022/05/20 03:51:54;;;;;;;0.00;0.00;;;16.30;1.00;226.50;231333.00;;;;5070683;28;20209;-69
2022/05/20 03:54:29;;;;;;;0.10;0.10;;;16.20;1.00;226.50;231333.00;;;;5068476;28;20202;-68
2022/05/20 03:56:57;;;;;;;0.00;0.00;;;16.30;1.00;226.50;231333.00;;;;5063836;28;20220;-69
2022/05/20 03:59:25;;;;;;;0.00;0.00;;;16.30;1.00;226.50;231333.00;;;;5069593;28;20719;-69
2022/05/20 04:01:58;;;;;;;0.00;0.00;;;16.30;1.00;226.50;231333.00;;;;5065497;28;20205;-69
2022/05/20 04:04:31;;;;;;;0.00;0.00;;;16.40;1.00;226.50;231333.00;;;;5082885;28;20203;-68
2022/05/20 04:07:02;;;;;;;0.00;0.00;;;16.40;1.00;226.50;231333.00;;;;5058248;28;20197;-69
2022/05/20 04:09:30;;;;;;;0.10;0.10;;;16.50;1.00;226.50;231333.00;;;;5066887;28;20675;-69
2022/05/20 04:12:03;;;;;;;0.00;0.00;;;16.40;1.00;226.50;231333.00;;;;5070288;28;20756;-69
2022/05/20 04:14:33;;;;;;;0.00;0.00;;;16.50;1.00;226.50;231333.00;;;;5070538;28;20218;-68
2022/05/20 04:17:05;;;;;;;0.00;0.00;;;16.60;1.00;226.50;231333.00;;;;5071117;28;20650;-69
2022/05/20 04:19:34;;;;;;;0.00;0.00;;;16.50;1.00;226.50;231333.00;;;;5064627;28;20210;-68
2022/05/20 04:22:09;;;;;;;0.00;0.00;;;16.50;1.00;226.50;231333.00;;;;5077386;28;20204;-69
2022/05/20 04:24:38;;;;;;;0.00;0.00;;;16.50;1.00;226.50;231333.00;;;;5078670;28;20208;-68
2022/05/20 04:27:07;;;;;;;0.00;0.00;;;16.50;1.00;226.50;231333.00;;;;5077119;28;20284;-69
2022/05/20 04:29:35;;;;;;;0.00;0.00;;;16.50;1.00;226.50;231333.00;;;;5076730;28;20225;-69
2022/05/20 04:32:06;;;;;;;0.00;0.00;;;16.50;1.00;226.50;231333.00;;;;5069081;28;20214;-69
2022/05/20 04:34:35;;;;;;;0.00;0.00;;;16.50;1.00;226.50;231333.00;;;;5070625;28;20194;-70
2022/05/20 04:37:04;;;;;;;0.05;0.05;;;16.50;1.00;226.50;231333.00;;;;5067515;28;20194;-69
2022/05/20 04:39:33;;;;;;;0.00;0.00;;;16.60;1.00;226.50;231333.00;;;;5069331;28;20217;-69
2022/05/20 04:47:36;;;;;;;0.00;0.00;;;16.70;1.00;226.50;231333.00;;;;5070086;28;20204;-69
2022/05/20 04:50:06;;;;;;;0.00;0.00;;;16.80;1.00;226.50;231333.00;;;;5067017;28;20218;-69
2022/05/20 04:52:34;;;;;;;0.00;0.00;;;16.80;1.00;226.50;231333.00;;;;5061976;28;20222;-69
2022/05/20 04:55:02;;;;;;;0.00;0.00;;;16.80;1.00;226.50;231333.00;;;;5070765;28;20201;-69
2022/05/20 04:57:34;;;;;;;0.00;0.00;;;16.80;1.00;226.50;231333.00;;;;5069651;28;20267;-69
2022/05/20 05:00:09;;;;;;;0.00;0.00;;;17.00;1.00;226.50;231333.00;;;;5069939;28;20225;-70
2022/05/20 05:02:40;;;;;;;0.00;0.00;;;17.00;1.00;226.50;231333.00;;;;5067100;28;20667;-69
2022/05/20 05:05:12;;;;;;;0.00;0.00;;;17.10;1.00;226.50;231333.00;;;;5070259;28;20213;-70
2022/05/20 05:07:45;;;;;;;0.00;0.00;;;17.10;1.00;226.50;231333.00;;;;5066347;28;20514;-69
2022/05/20 05:10:16;;;;;;;0.00;0.00;;;17.20;1.00;226.50;231333.00;;;;5068727;28;20248;-69
2022/05/20 05:12:44;;;;;;;0.03;0.03;;;17.30;1.00;226.50;231333.00;;;;5071113;28;20566;-69
2022/05/20 05:15:14;;;;;;;0.00;0.00;;;17.30;1.00;226.50;231333.00;;;;5069781;28;20198;-69
2022/05/20 05:20:32;;;;;;;0.00;0.00;;;17.40;1.00;226.50;231333.00;;;;5064927;28;20645;-69
2022/05/20 05:23:02;;;;;;;0.00;0.00;;;17.40;1.00;226.50;231333.00;;;;5050947;28;20668;-69
2022/05/20 05:25:34;;;;;;;0.00;0.00;;;17.50;1.00;226.50;231333.00;;;;5070026;28;20663;-70
2022/05/20 05:28:04;;;;;;;0.00;0.00;;;17.50;1.00;226.50;231333.00;;;;5072865;28;20542;-69
2022/05/20 05:30:34;;;;;;;0.10;0.10;;;17.50;1.00;226.50;231333.00;;;;5074556;28;20230;-69
2022/05/20 05:33:04;;;;;;;0.00;0.00;;;17.60;1.00;226.50;231333.00;;;;5074697;28;20222;-70
2022/05/20 05:35:34;;;;;;;0.10;0.10;;;17.60;1.00;226.50;231333.00;;;;5072349;28;20682;-69
2022/05/20 05:38:02;;;;;;;0.00;0.00;;;17.70;1.00;226.50;231333.00;;;;5072676;28;20255;-69
2022/05/20 05:40:33;;;;;;;0.10;0.10;;;17.80;1.00;226.50;231333.00;;;;5072766;28;20209;-69
2022/05/20 05:43:03;;;;;;;0.10;0.10;;;17.70;1.00;226.50;231333.00;;;;5064495;28;20201;-69
2022/05/20 05:45:35;;;;;;;0.00;0.00;;;17.70;1.00;226.50;231333.00;;;;5073837;28;20563;-70
2022/05/20 05:48:09;;;;;;;0.00;0.00;;;17.70;1.00;226.50;231333.00;;;;5084595;28;20658;-70
2022/05/20 05:50:41;;;;;;;0.00;0.00;;;17.80;1.00;226.50;231333.00;;;;5072231;28;20629;-70
2022/05/20 05:53:12;;;;;;;0.00;0.00;;;17.90;1.00;226.50;231333.00;;;;5053565;28;20272;-70
2022/05/20 05:55:43;;;;;;;0.00;0.00;;;18.00;1.00;226.50;231333.00;;;;5069123;28;20193;-70
2022/05/20 05:58:13;;;;;;;0.00;0.00;;;18.10;1.00;226.50;231333.00;;;;5070236;28;20202;-70
2022/05/20 06:00:43;;;;;;;0.00;0.00;;;18.30;1.00;226.50;231333.00;;;;5073380;28;20251;-70
2022/05/20 06:03:15;;;;;;;0.00;0.00;;;18.40;1.00;226.50;231333.00;;;;5076514;28;20259;-70
2022/05/20 06:05:45;;;;;;;0.00;0.00;;;18.60;1.00;226.50;231333.00;;;;5069998;28;20564;-70
2022/05/20 06:08:14;;;;;;;0.00;0.00;;;18.70;1.00;226.50;231333.00;;;;5064813;28;20202;-70
2022/05/20 06:10:43;;;;;;;0.10;0.10;;;18.80;1.00;226.50;231333.00;;;;5069602;28;20213;-70
2022/05/20 06:13:12;;;;;;;0.00;0.00;;;18.60;1.00;226.50;231333.00;;;;5065340;28;20225;-70
2022/05/20 06:15:41;;;;;;;0.00;0.00;;;18.60;1.00;226.50;231333.00;;;;5071706;28;20201;-70
2022/05/20 06:18:10;;;;;;;0.00;0.00;;;18.50;1.00;226.50;231333.00;;;;5071914;28;20626;-71
2022/05/20 06:20:39;;;;;;;0.00;0.00;;;18.60;1.00;226.50;231333.00;;;;5072800;28;20214;-70
2022/05/20 06:23:08;;;;;;;0.00;0.00;;;18.70;1.00;226.50;231333.00;;;;5071837;28;20319;-71
2022/05/20 06:25:37;;;;;;;0.00;0.00;;;18.70;1.00;226.50;231333.00;;;;5072279;28;20204;-70
2022/05/20 06:28:25;;;;;;;0.00;0.00;;;18.80;1.00;226.50;231333.00;;;;5070641;28;20198;-70
2022/05/20 06:30:54;;;;;;;0.00;0.00;;;19.00;1.00;226.50;231333.00;;;;5072070;28;20217;-70
2022/05/20 06:33:23;;;;;;;0.00;0.00;;;19.00;1.00;226.50;231333.00;;;;5071888;28;20243;-70
2022/05/20 06:41:25;;;;;;;0.00;0.00;;;19.10;1.00;226.50;231333.00;;;;5066258;28;20255;-71
2022/05/20 06:43:53;;;;;;;0.00;0.00;;;19.00;1.00;226.50;231333.00;;;;5072076;28;20193;-71
2022/05/20 06:46:21;;;;;;;0.00;0.00;;;19.00;1.00;226.50;231333.00;;;;5066609;28;20251;-70
2022/05/20 06:49:01;;;;;;;0.00;0.00;;;19.00;1.00;226.50;231333.00;;;;5072367;28;20588;-70
2022/05/20 06:51:37;;;;;;;0.00;0.00;;;19.20;1.00;226.50;231333.00;;;;5066399;28;20493;-70
2022/05/20 06:54:09;;;;;;;0.00;0.00;;;19.40;1.00;226.50;231333.00;;;;5072503;28;20674;-70
2022/05/20 06:56:41;;;;;;;0.00;0.00;;;19.50;1.00;226.50;231333.00;;;;5068760;28;20193;-70
2022/05/20 06:59:09;;;;;;;0.00;0.00;;;19.70;1.00;226.50;231333.00;;;;5071677;28;20209;-70
2022/05/20 07:01:38;;;;;;;0.00;0.00;;;19.70;99.90;226.50;231333.00;;;;5065519;28;20197;-69
2022/05/20 07:04:29;;;;;;;0.00;0.00;;;19.80;99.90;226.50;231333.00;;;;5069377;28;20225;-70
2022/05/20 07:07:00;;;;;;;0.00;0.00;;;19.90;99.90;226.50;231333.00;;;;5071460;28;20202;-69
2022/05/20 07:09:28;;;;;;;0.00;0.00;;;20.00;99.90;226.50;231333.00;;;;5072390;28;20228;-70
2022/05/20 07:11:57;;;;;;;0.00;0.00;;;20.20;99.90;226.50;231333.00;;;;5063946;28;20248;-70
2022/05/20 07:14:26;;;;;;;0.00;0.00;;;20.40;99.90;226.50;231333.00;;;;5065659;28;20209;-70
2022/05/20 07:16:55;;;;;;;0.00;0.00;;;20.50;99.90;226.50;231333.00;;;;5071102;28;20197;-71
2022/05/20 07:19:23;;;;;;;0.05;0.05;;;20.60;99.90;226.50;231333.00;;;;5064139;28;20251;-69
2022/05/20 07:21:52;;;;;;;0.00;0.00;;;20.60;99.90;226.50;231333.00;;;;5064798;28;20252;-71
2022/05/20 07:24:22;;;;;;;0.00;0.00;;;20.60;99.90;226.50;231333.00;;;;5051830;28;20194;-69
2022/05/20 07:26:50;;;;;;;0.00;0.00;;;20.70;99.90;226.50;231333.00;;;;5065320;28;20667;-70
2022/05/20 07:29:19;;;;;;;0.00;0.00;;;20.70;43.50;226.50;231333.00;;;;5071022;28;20237;-70
2022/05/20 07:31:47;;;;;;;0.00;0.00;;;20.80;1.00;226.50;231333.00;;;;5068133;28;20671;-70
2022/05/20 07:34:15;;;;;;;0.00;0.00;;;20.90;1.00;226.50;231333.00;;;;5070897;28;20317;-70
2022/05/20 07:36:44;;;;;;;0.00;0.00;;;21.00;1.00;226.50;231333.00;;;;5066488;28;20527;-69
2022/05/20 07:39:12;;;;;;;0.00;0.00;;;21.00;1.00;226.50;231333.00;;;;5070302;28;20228;-70
2022/05/20 07:41:43;;;;;;;0.00;0.00;;;21.00;1.00;226.50;231333.00;;;;5070857;28;20205;-69
2022/05/20 07:44:11;;;;;;;0.00;0.00;;;21.10;1.00;226.50;231333.00;;;;5063267;28;20247;-70
2022/05/20 07:46:40;;;;;;;0.00;0.00;;;20.90;1.00;226.50;231333.00;;;;5060290;28;20309;-69
2022/05/20 07:49:08;;;;;;;0.00;0.00;;;21.10;1.00;226.50;231333.00;;;;5054116;28;20823;-69
2022/05/20 07:51:45;;;;;;;0.00;0.00;;;21.10;1.00;226.50;231333.00;;;;5067780;28;20276;-70
2022/05/20 07:54:19;;;;;;;0.00;0.00;;;21.40;1.00;226.50;231333.00;;;;5063111;28;20225;-70
2022/05/20 07:56:57;;;;;;;0.00;0.00;;;21.40;1.00;226.50;231333.00;;;;5065205;28;20193;-70
2022/05/20 07:59:30;;;;;;;0.00;0.00;;;21.30;1.00;226.50;231333.00;;;;5053523;28;20225;-69
2022/05/20 08:02:01;;;;;;;0.00;0.00;;;21.40;1.00;226.50;231333.00;;;;5070237;28;20564;-69
2022/05/20 08:04:56;;;;;;;0.00;0.00;;;21.50;1.00;226.50;231333.00;;;;5070356;28;20205;-69
2022/05/20 08:07:29;;;;;;;0.00;0.00;;;21.60;1.00;226.50;231333.00;;;;5070852;28;20200;-70
2022/05/20 08:09:58;;;;;;;0.00;0.00;;;21.70;1.00;226.50;231333.00;;;;5070515;28;20221;-69
2022/05/20 08:12:29;;;;;;;0.00;0.00;;;21.80;1.00;226.50;231333.00;;;;5068139;28;20280;-70
2022/05/20 08:14:57;;;;;;;0.00;0.00;;;21.90;99.90;226.50;231333.00;;;;5070829;28;20602;-70
2022/05/20 08:17:26;;;;;;;0.00;0.00;;;21.80;99.90;226.50;231333.00;;;;5070273;28;20198;-70
2022/05/20 08:19:57;;;;;;;0.00;0.00;;;21.70;99.90;226.50;231333.00;;;;5071724;28;20308;-70
2022/05/20 08:22:25;;;;;;;0.00;0.00;;;21.60;99.90;226.50;231333.00;;;;5070952;28;20209;-70
2022/05/20 08:24:58;;;;;;;0.00;0.00;;;21.70;99.90;226.50;231333.00;;;;5072109;28;20193;-70
2022/05/20 08:27:31;;;;;;;0.00;0.00;;;21.60;99.90;226.50;231333.00;;;;5086115;28;20208;-69
2022/05/20 08:30:08;;;;;;;0.00;0.00;;;21.60;99.90;226.50;231333.00;;;;5087226;28;20217;-69
2022/05/20 08:32:36;;;;;;;0.00;0.00;;;21.50;99.90;226.50;231333.00;;;;5062682;28;20200;-69
2022/05/20 08:35:06;;;;;;;0.00;0.00;;;21.50;99.90;226.50;231333.00;;;;5071198;28;20243;-69
2022/05/20 08:37:39;;;;;;;0.00;0.00;;;21.50;99.90;226.50;231333.00;;;;5072142;28;20709;-69
2022/05/20 08:40:12;;;;;;;0.00;0.00;;;21.50;99.90;226.50;231333.00;;;;5069927;28;20217;-69
2022/05/20 08:42:43;;;;;;;0.00;0.00;;;21.50;1.00;226.50;231333.00;;;;5059922;28;20200;-70
2022/05/20 08:45:16;;;;;;;0.00;0.00;;;21.50;1.00;226.50;231333.00;;;;5058141;28;20198;-69
2022/05/20 08:47:52;;;;;;;0.00;0.00;;;21.40;1.00;226.50;231333.00;;;;5071209;28;20221;-69
2022/05/20 08:50:25;;;;;;;0.00;0.00;;;21.50;1.00;226.50;231333.00;;;;5072260;28;20286;-70
2022/05/20 08:52:57;;;;;;;0.00;0.00;;;21.50;1.00;226.50;231333.00;;;;5055158;28;20194;-69
2022/05/20 08:55:26;;;;;;;0.00;0.00;;;21.50;1.00;226.50;231333.00;;;;5056638;28;20209;-69
2022/05/20 08:58:01;;;;;;;0.00;0.00;;;21.60;1.00;226.50;231333.00;;;;5066127;28;20208;-69
2022/05/20 09:00:31;;;;;;;0.00;0.00;;;21.70;1.00;226.50;231333.00;;;;5072789;28;20285;-69
2022/05/20 09:03:06;;;;;;;0.00;0.00;;;21.80;1.00;226.50;231333.00;;;;5075915;28;20675;-70
2022/05/20 09:05:39;;;;;;;0.00;0.00;;;21.90;1.00;226.50;231333.00;;;;5077415;28;20219;-69
2022/05/20 09:08:21;;;;;;;0.00;0.00;;;21.90;99.90;226.50;231333.00;;;;5074174;28;20200;-70
2022/05/20 09:10:54;;;;;;;0.00;0.00;;;21.90;1.00;226.50;231333.00;;;;5067579;28;20206;-69
2022/05/20 09:16:16;;;;;;;0.00;0.00;;;21.90;1.00;226.50;231333.00;;;;5070114;28;20202;-70
2022/05/20 09:18:47;;;;;;;0.00;0.00;;;21.90;1.00;226.50;231333.00;;;;5074540;28;20236;-69
2022/05/20 09:21:38;;;;;;;0.00;0.00;;;21.90;1.00;226.50;231333.00;;;;5072833;28;20200;-71
2022/05/20 09:24:15;;;;;;;0.00;0.00;;;21.90;1.00;226.50;231333.00;;;;5072787;28;20248;-70
2022/05/20 09:26:49;;;;;;;0.00;0.00;;;21.90;1.00;226.50;231333.00;;;;5052605;28;20655;-70
2022/05/20 09:29:31;;;;;;;0.00;0.00;;;21.90;1.00;226.50;231333.00;;;;5053771;28;20301;-69
2022/05/20 09:32:24;;;;;;;0.00;0.00;;;22.00;1.00;226.50;231333.00;;;;5064528;28;20213;-70
2022/05/20 09:35:11;;;;;;;0.00;0.00;;;22.00;1.00;226.50;231333.00;;;;5075084;28;20228;-70
2022/05/20 09:37:44;;;;;;;0.00;0.00;;;22.10;1.00;226.50;231333.00;;;;5071320;28;20209;-69
2022/05/20 09:40:32;;;;;;;0.00;0.00;;;22.00;1.00;226.50;231333.00;;;;5073152;28;20229;-70
2022/05/20 09:43:27;;;;;;;0.00;0.00;;;21.90;1.00;226.50;231333.00;;;;5056451;28;20202;-70
2022/05/20 09:46:01;;;;;;;0.00;0.00;;;21.80;32.80;226.50;231333.00;;;;5056930;28;20560;-69
2022/05/20 09:48:41;;;;;;;0.00;0.00;;;21.70;99.90;226.50;231333.00;;;;5073783;28;20782;-69
2022/05/20 09:51:17;;;;;;;0.00;0.00;;;21.70;99.90;226.50;231333.00;;;;5065824;28;20206;-70
2022/05/20 09:54:12;;;;;;;0.00;0.00;;;21.60;99.90;226.50;231333.00;;;;5071409;28;20209;-70
2022/05/20 09:56:44;;;;;;;0.00;0.00;;;21.50;99.90;226.50;231333.00;;;;5072925;28;20251;-70
2022/05/20 09:59:28;;;;;;;0.00;0.00;;;21.50;1.00;226.50;231333.00;;;;5073516;28;20221;-70
2022/05/20 10:02:10;;;;;;;0.00;0.00;;;21.40;1.00;226.50;231333.00;;;;5072634;28;20597;-70
2022/05/20 10:04:51;;;;;;;0.00;0.00;;;21.30;1.00;226.50;231333.00;;;;5073529;28;20225;-71
2022/05/20 10:07:40;;;;;;;0.00;0.00;;;21.30;1.00;226.50;231333.00;;;;5073976;28;20198;-70
2022/05/20 10:10:33;;;;;;;0.00;0.00;;;21.20;1.00;226.50;231333.00;;;;5057523;28;20231;-69
2022/05/20 10:13:06;;;;;;;0.00;0.00;;;21.10;1.00;226.50;231333.00;;;;5060025;28;20198;-70
2022/05/20 10:15:42;;;;;;;0.00;0.00;;;21.00;1.00;226.50;231333.00;;;;5060589;28;20267;-69
2022/05/20 10:18:27;;;;;;;0.00;0.00;;;20.90;1.00;226.50;231333.00;;;;5055437;28;20409;-71
2022/05/20 10:21:18;;;;;;;0.00;0.00;;;21.00;1.00;226.50;231333.00;;;;5071337;28;20224;-70
2022/05/20 10:23:55;;;;;;;0.00;0.00;;;20.80;1.00;226.50;231333.00;;;;5065150;28;20198;-69
2022/05/20 10:26:36;;;;;;;0.00;0.00;;;20.80;1.00;226.50;231333.00;;;;5070189;28;20198;-70
2022/05/20 10:35:00;;;;;;;0.00;0.00;;;21.10;1.00;226.50;231333.00;;;;5068964;28;20712;-70
2022/05/20 10:37:59;;;;;;;0.00;0.00;;;21.10;1.00;226.50;231333.00;;;;5066662;28;20208;-69
2022/05/20 10:40:58;;;;;;;0.00;0.00;;;21.20;1.00;226.50;231333.00;;;;5071660;28;20228;-69
2022/05/20 10:49:49;;;;;;;0.00;0.00;;;21.90;1.00;226.50;231333.00;;;;5062920;28;20288;-70
2022/05/20 10:52:46;;;;;;;0.00;0.00;;;22.30;1.00;226.50;231333.00;;;;5066882;28;20228;-70
2022/05/20 10:55:29;;;;;;;0.00;0.00;;;22.70;1.00;226.50;231333.00;;;;5065629;28;20634;-69
2022/05/20 10:58:26;;;;;;;0.00;0.00;;;23.00;99.90;226.50;231333.00;;;;5061484;28;20606;-69
2022/05/20 11:00:56;;;;;;;0.00;0.00;;;23.00;99.90;226.50;231333.00;;;;5066235;28;20216;-69
2022/05/20 11:04:04;;;;;;;0.00;0.00;;;22.90;99.90;226.50;231333.00;;;;5064145;28;20225;-69
2022/05/20 11:07:05;;;;;;;0.00;0.00;;;22.80;99.90;226.50;231333.00;;;;5065415;28;20383;-69
2022/05/20 11:09:52;;;;;;;0.00;0.00;;;22.80;99.90;226.50;231333.00;;;;5063636;28;20214;-70
2022/05/20 11:12:32;;;;;;;0.00;0.00;;;22.90;99.90;226.50;231333.00;;;;5064113;28;20694;-70
2022/05/20 11:15:35;;;;;;;0.00;0.00;;;23.00;99.90;226.50;231333.00;;;;5061371;28;20222;-70
2022/05/20 11:18:31;;;;;;;0.00;0.00;;;23.10;99.90;226.50;231333.00;;;;5053557;28;20212;-70
2022/05/20 11:21:48;;;;;;;0.00;0.00;;;23.60;99.90;226.50;231333.00;;;;5066155;28;20209;-71
2022/05/20 11:24:45;;;;;;;0.00;0.00;;;24.00;91.50;226.50;231333.00;;;;5062788;28;20225;-70
2022/05/20 11:28:00;;;;;;;0.00;0.00;;;24.30;1.00;226.50;231333.00;;;;5064714;28;20675;-70
2022/05/20 11:30:49;;;;;;;0.00;0.00;;;24.60;1.00;226.50;231333.00;;;;5060064;28;20225;-70
2022/05/20 11:33:47;;;;;;;0.00;0.00;;;24.70;1.00;226.50;231333.00;;;;5063029;28;20194;-70
2022/05/20 11:36:52;;;;;;;0.00;0.00;;;24.90;1.00;226.50;231333.00;;;;5066934;28;20291;-70
2022/05/20 11:39:57;;;;;;;0.00;0.00;;;24.70;99.90;226.50;231333.00;;;;5047892;28;20250;-68
2022/05/20 11:42:48;;;;;;;0.00;0.00;;;24.80;89.20;226.50;231333.00;;;;5064205;28;20346;-70
2022/05/20 11:45:36;;;;;;;0.00;0.00;;;24.80;1.00;226.50;231333.00;;;;5065360;28;20742;-70
2022/05/20 11:48:48;;;;;;;0.00;0.00;;;24.60;1.00;226.50;231333.00;;;;5067738;28;20200;-70
2022/05/20 11:51:49;;;;;;;0.00;0.00;;;24.80;1.00;226.50;231333.00;;;;5023062;28;20217;-70